sensor_id;sensor_type;location;lat;lon;timestamp;pressure;altitude;pressure_sealevel;temperature;humidity
59987;BME280;46181;51.498;5.392;2023-09-12T00:04:24;101180.7;;;25.98;56.91406
59987;BME280;46181;51.498;5.392;2023-09-12T00:08:54;101179.5;;;25.97;56.96094
59987;BME280;46181;51.498;5.392;2023-09-12T00:13:24;101182.5;;;25.94;57.03906
59987;BME280;46181;51.498;5.392;2023-09-12T00:17:54;101186.2;;;25.92;57.08203
59987;BME280;46181;51.498;5.392;2023-09-12T00:22:24;101185;;;25.89;57.10254
59987;BME280;46181;51.498;5.392;2023-09-12T00:26:54;101185.4;;;25.84;57.1416
59987;BME280;46181;51.498;5.392;2023-09-12T00:31:24;101192;;;25.81;57.17285
59987;BME280;46181;51.498;5.392;2023-09-12T00:35:54;101193.1;;;25.76;57.23633
59987;BME280;46181;51.498;5.392;2023-09-12T00:40:24;101192.3;;;25.71;57.26563
59987;BME280;46181;51.498;5.392;2023-09-12T00:44:54;101190.8;;;25.63;57.3252
59987;BME280;46181;51.498;5.392;2023-09-12T00:49:25;101185.6;;;25.58;57.37793
59987;BME280;46181;51.498;5.392;2023-09-12T00:53:54;101178.7;;;25.51;57.41504
59987;BME280;46181;51.498;5.392;2023-09-12T00:58:24;101178.2;;;25.49;57.45898
59987;BME280;46181;51.498;5.392;2023-09-12T01:02:55;101180.7;;;25.46;57.4668
59987;BME280;46181;51.498;5.392;2023-09-12T01:07:24;101183.4;;;25.45;57.50098
59987;BME280;46181;51.498;5.392;2023-09-12T01:11:54;101175.1;;;25.41;57.50781
59987;BME280;46181;51.498;5.392;2023-09-12T01:16:24;101169.3;;;25.35;57.52344
59987;BME280;46181;51.498;5.392;2023-09-12T01:21:15;101169.2;;;25.22;57.73926
59987;BME280;46181;51.498;5.392;2023-09-12T01:25:49;101173.3;;;25.13;57.93652
59987;BME280;46181;51.498;5.392;2023-09-12T01:29:56;101168.8;;;25.17;57.70996
59987;BME280;46181;51.498;5.392;2023-09-12T01:34:24;101165.1;;;25.13;57.71582
59987;BME280;46181;51.498;5.392;2023-09-12T01:38:54;101160.7;;;25.07;57.77734
59987;BME280;46181;51.498;5.392;2023-09-12T01:43:25;101168.4;;;25.04;57.79785
59987;BME280;46181;51.498;5.392;2023-09-12T01:47:56;101168.7;;;25.01;57.81641
59987;BME280;46181;51.498;5.392;2023-09-12T01:52:24;101168.4;;;24.97;57.78906
59987;BME280;46181;51.498;5.392;2023-09-12T01:56:54;101178.4;;;24.92;57.83984
59987;BME280;46181;51.498;5.392;2023-09-12T02:01:24;101179.5;;;24.9;57.80273
59987;BME280;46181;51.498;5.392;2023-09-12T02:05:54;101175.1;;;24.86;57.84375
59987;BME280;46181;51.498;5.392;2023-09-12T02:10:24;101167;;;24.83;57.86328
59987;BME280;46181;51.498;5.392;2023-09-12T02:14:54;101161.7;;;24.8;57.87207
59987;BME280;46181;51.498;5.392;2023-09-12T02:19:24;101162.3;;;24.76;57.82031
59987;BME280;46181;51.498;5.392;2023-09-12T02:23:54;101166.3;;;24.73;57.85059
59987;BME280;46181;51.498;5.392;2023-09-12T02:28:24;101165.2;;;24.65;57.8877
59987;BME280;46181;51.498;5.392;2023-09-12T02:32:54;101166;;;24.61;57.94043
59987;BME280;46181;51.498;5.392;2023-09-12T02:37:24;101162.8;;;24.58;57.97168
59987;BME280;46181;51.498;5.392;2023-09-12T02:41:54;101166.4;;;24.55;57.9668
59987;BME280;46181;51.498;5.392;2023-09-12T02:46:24;101165.7;;;24.5;58.00781
59987;BME280;46181;51.498;5.392;2023-09-12T02:50:54;101166.9;;;24.48;58.0166
59987;BME280;46181;51.498;5.392;2023-09-12T02:55:24;101161.4;;;24.46;58.03711
59987;BME280;46181;51.498;5.392;2023-09-12T02:59:54;101163.3;;;24.44;58.0332
59987;BME280;46181;51.498;5.392;2023-09-12T03:04:24;101166.7;;;24.41;58.05371
59987;BME280;46181;51.498;5.392;2023-09-12T03:08:55;101171.3;;;24.34;58.16113
59987;BME280;46181;51.498;5.392;2023-09-12T03:13:24;101173.6;;;24.32;58.11133
59987;BME280;46181;51.498;5.392;2023-09-12T03:17:54;101165.3;;;24.29;58.0957
59987;BME280;46181;51.498;5.392;2023-09-12T03:22:24;101154;;;24.25;58.1377
59987;BME280;46181;51.498;5.392;2023-09-12T03:26:54;101141.2;;;24.24;58.13574
59987;BME280;46181;51.498;5.392;2023-09-12T03:31:24;101150.6;;;24.25;58.10156
59987;BME280;46181;51.498;5.392;2023-09-12T03:35:54;101146.2;;;24.23;58.08789
59987;BME280;46181;51.498;5.392;2023-09-12T03:40:24;101148.7;;;24.21;58.1084
59987;BME280;46181;51.498;5.392;2023-09-12T03:44:54;101149.9;;;24.2;58.09668
59987;BME280;46181;51.498;5.392;2023-09-12T03:49:24;101151.6;;;24.18;58.12793
59987;BME280;46181;51.498;5.392;2023-09-12T03:53:54;101159.6;;;24.17;58.13965
59987;BME280;46181;51.498;5.392;2023-09-12T03:58:24;101146.3;;;24.17;58.16309
59987;BME280;46181;51.498;5.392;2023-09-12T04:02:54;101145.8;;;24.2;58.19043
59987;BME280;46181;51.498;5.392;2023-09-12T04:07:24;101149.3;;;24.21;58.19043
59987;BME280;46181;51.498;5.392;2023-09-12T04:11:54;101145.1;;;24.21;58.20117
59987;BME280;46181;51.498;5.392;2023-09-12T04:16:24;101145.7;;;24.21;58.17871
59987;BME280;46181;51.498;5.392;2023-09-12T04:20:54;101142.9;;;24.22;58.21484
59987;BME280;46181;51.498;5.392;2023-09-12T04:25:24;101135;;;24.21;58.23633
59987;BME280;46181;51.498;5.392;2023-09-12T04:29:54;101139.3;;;24.19;58.26855
59987;BME280;46181;51.498;5.392;2023-09-12T04:34:24;101154.5;;;24.21;58.27148
59987;BME280;46181;51.498;5.392;2023-09-12T04:38:54;101149.8;;;24.21;58.2832
59987;BME280;46181;51.498;5.392;2023-09-12T04:43:24;101147.4;;;24.17;58.33789
59987;BME280;46181;51.498;5.392;2023-09-12T04:47:54;101153.5;;;24.18;58.36035
59987;BME280;46181;51.498;5.392;2023-09-12T04:52:24;101156.9;;;24.18;58.39551
59987;BME280;46181;51.498;5.392;2023-09-12T04:56:54;101161;;;24.17;58.40723
59987;BME280;46181;51.498;5.392;2023-09-12T05:01:24;101164.9;;;24.14;58.42578
59987;BME280;46181;51.498;5.392;2023-09-12T05:05:54;101164.9;;;24.11;58.44531
59987;BME280;46181;51.498;5.392;2023-09-12T05:10:24;101164.3;;;24.12;58.44531
59987;BME280;46181;51.498;5.392;2023-09-12T05:14:54;101175.8;;;24.09;58.46484
59987;BME280;46181;51.498;5.392;2023-09-12T05:19:24;101168.5;;;24.08;58.50977
59987;BME280;46181;51.498;5.392;2023-09-12T05:23:54;101160;;;24.09;58.5
59987;BME280;46181;51.498;5.392;2023-09-12T05:28:24;101142.7;;;24.1;58.50098
59987;BME280;46181;51.498;5.392;2023-09-12T05:32:54;101135.4;;;24.1;58.5127
59987;BME280;46181;51.498;5.392;2023-09-12T05:37:24;101128.4;;;24.12;58.51465
59987;BME280;46181;51.498;5.392;2023-09-12T05:41:54;101138.2;;;24.12;58.50488
59987;BME280;46181;51.498;5.392;2023-09-12T05:46:24;101141.7;;;24.13;58.5293
59987;BME280;46181;51.498;5.392;2023-09-12T05:50:54;101147.6;;;24.15;58.56641
59987;BME280;46181;51.498;5.392;2023-09-12T05:55:24;101149.1;;;24.18;58.55762
59987;BME280;46181;51.498;5.392;2023-09-12T05:59:54;101143.7;;;24.2;58.56055
59987;BME280;46181;51.498;5.392;2023-09-12T06:04:24;101155.4;;;24.22;58.56348
59987;BME280;46181;51.498;5.392;2023-09-12T06:08:54;101161.5;;;24.23;58.5752
59987;BME280;46181;51.498;5.392;2023-09-12T06:13:24;101161.3;;;24.26;58.5791
59987;BME280;46181;51.498;5.392;2023-09-12T06:17:54;101160.1;;;24.27;58.58105
59987;BME280;46181;51.498;5.392;2023-09-12T06:22:24;101167;;;24.29;58.61816
59987;BME280;46181;51.498;5.392;2023-09-12T06:26:54;101161.6;;;24.31;58.60938
59987;BME280;46181;51.498;5.392;2023-09-12T06:31:24;101163;;;24.35;58.5918
59987;BME280;46181;51.498;5.392;2023-09-12T06:35:56;101169.5;;;24.35;58.62695
59987;BME280;46181;51.498;5.392;2023-09-12T06:40:24;101170.2;;;24.38;58.60742
59987;BME280;46181;51.498;5.392;2023-09-12T06:44:54;101177.9;;;24.41;58.62305
59987;BME280;46181;51.498;5.392;2023-09-12T06:49:24;101187;;;24.46;58.62891
59987;BME280;46181;51.498;5.392;2023-09-12T06:53:54;101186.4;;;24.51;58.61133
59987;BME280;46181;51.498;5.392;2023-09-12T06:58:24;101186.4;;;24.56;58.60742
59987;BME280;46181;51.498;5.392;2023-09-12T07:02:54;101186.6;;;24.62;58.58008
59987;BME280;46181;51.498;5.392;2023-09-12T07:07:24;101181.6;;;24.68;58.58789
59987;BME280;46181;51.498;5.392;2023-09-12T07:11:54;101186.5;;;24.73;58.57129
59987;BME280;46181;51.498;5.392;2023-09-12T07:16:24;101185.6;;;24.81;58.51172
59987;BME280;46181;51.498;5.392;2023-09-12T07:21:00;101185.4;;;24.88;58.53223
59987;BME280;46181;51.498;5.392;2023-09-12T07:25:24;101198.5;;;24.91;58.50293
59987;BME280;46181;51.498;5.392;2023-09-12T07:29:54;101197.2;;;24.94;58.5166
59987;BME280;46181;51.498;5.392;2023-09-12T07:34:24;101206;;;24.95;58.56543
59987;BME280;46181;51.498;5.392;2023-09-12T07:38:54;101198.9;;;24.95;58.6123
59987;BME280;46181;51.498;5.392;2023-09-12T07:43:24;101199.1;;;25.03;58.61035
59987;BME280;46181;51.498;5.392;2023-09-12T07:47:54;101192.9;;;25.17;58.5127
59987;BME280;46181;51.498;5.392;2023-09-12T07:52:24;101193.4;;;25.3;58.34375
59987;BME280;46181;51.498;5.392;2023-09-12T07:56:54;101198.2;;;25.45;58.25879
59987;BME280;46181;51.498;5.392;2023-09-12T08:01:24;101194.4;;;25.64;58.04883
59987;BME280;46181;51.498;5.392;2023-09-12T08:06:02;101196.8;;;25.78;57.98633
59987;BME280;46181;51.498;5.392;2023-09-12T08:10:24;101212.6;;;25.95;57.72656
59987;BME280;46181;51.498;5.392;2023-09-12T08:14:54;101221.9;;;26.16;57.64941
59987;BME280;46181;51.498;5.392;2023-09-12T08:19:24;101225;;;26.39;57.46875
59987;BME280;46181;51.498;5.392;2023-09-12T08:23:54;101228.9;;;26.57;57.29395
59987;BME280;46181;51.498;5.392;2023-09-12T08:28:24;101237.8;;;26.7;57.25098
59987;BME280;46181;51.498;5.392;2023-09-12T08:32:54;101246.6;;;26.84;57.22168
59987;BME280;46181;51.498;5.392;2023-09-12T08:37:24;101252.5;;;26.95;57.1084
59987;BME280;46181;51.498;5.392;2023-09-12T08:41:54;101253.1;;;27;57.14844
59987;BME280;46181;51.498;5.392;2023-09-12T08:46:25;101250.6;;;27.07;57.19434
59987;BME280;46181;51.498;5.392;2023-09-12T08:50:57;101249.6;;;27.2;57.17383
59987;BME280;46181;51.498;5.392;2023-09-12T08:55:24;101257.1;;;27.41;59.14258
59987;BME280;46181;51.498;5.392;2023-09-12T08:59:54;101253.9;;;27.5;59.11914
59987;BME280;46181;51.498;5.392;2023-09-12T09:04:24;101263;;;27.54;59.56836
59987;BME280;46181;51.498;5.392;2023-09-12T09:08:55;101263.3;;;27.6;59.4834
59987;BME280;46181;51.498;5.392;2023-09-12T09:13:25;101248.7;;;27.77;59.25977
59987;BME280;46181;51.498;5.392;2023-09-12T09:17:56;101229.4;;;27.87;59.1084
59987;BME280;46181;51.498;5.392;2023-09-12T09:22:24;101226.2;;;27.99;59.19336
59987;BME280;46181;51.498;5.392;2023-09-12T09:26:56;101222.3;;;28.04;59.03613
59987;BME280;46181;51.498;5.392;2023-09-12T09:31:24;101220.5;;;28.1;59.13965
59987;BME280;46181;51.498;5.392;2023-09-12T09:36:01;101227.5;;;28.13;59.1543
59987;BME280;46181;51.498;5.392;2023-09-12T09:40:25;101232.3;;;28.18;59.00781
59987;BME280;46181;51.498;5.392;2023-09-12T09:44:54;101224.3;;;28.26;59.14746
59987;BME280;46181;51.498;5.392;2023-09-12T09:49:24;101217.5;;;28.36;59.38281
59987;BME280;46181;51.498;5.392;2023-09-12T09:53:54;101221.8;;;28.49;58.88379
59987;BME280;46181;51.498;5.392;2023-09-12T09:58:27;101223.6;;;28.53;58.63086
59987;BME280;46181;51.498;5.392;2023-09-12T10:02:55;101220.4;;;28.58;58.75586
59987;BME280;46181;51.498;5.392;2023-09-12T10:07:25;101228.4;;;28.69;58.98145
59987;BME280;46181;51.498;5.392;2023-09-12T10:11:56;101220.4;;;28.87;58.32422
59987;BME280;46181;51.498;5.392;2023-09-12T10:16:28;101211.7;;;29;58.21094
59987;BME280;46181;51.498;5.392;2023-09-12T10:21:00;101218.3;;;29.1;57.89551
59987;BME280;46181;51.498;5.392;2023-09-12T10:25:25;101213.1;;;29.11;57.25
59987;BME280;46181;51.498;5.392;2023-09-12T10:29:54;101211.7;;;29.12;57.25293
59987;BME280;46181;51.498;5.392;2023-09-12T10:34:25;101208.1;;;29.16;56.74023
59987;BME280;46181;51.498;5.392;2023-09-12T10:38:56;101206.5;;;29.17;56.50684
59987;BME280;46181;51.498;5.392;2023-09-12T10:43:24;101209.9;;;29.22;56.23145
59987;BME280;46181;51.498;5.392;2023-09-12T10:47:54;101213.8;;;29.34;55.79883
59987;BME280;46181;51.498;5.392;2023-09-12T10:52:34;101209.1;;;29.38;54.55762
59987;BME280;46181;51.498;5.392;2023-09-12T10:57:05;101214;;;29.48;53.94629
59987;BME280;46181;51.498;5.392;2023-09-12T11:01:37;101218.5;;;29.42;53.69238
59987;BME280;46181;51.498;5.392;2023-09-12T11:06:04;101215;;;29.43;53.75391
59987;BME280;46181;51.498;5.392;2023-09-12T11:10:31;101210.2;;;29.56;53.62598
59987;BME280;46181;51.498;5.392;2023-09-12T11:15:09;101206.4;;;29.64;53.02441
59987;BME280;46181;51.498;5.392;2023-09-12T11:19:25;101197.5;;;29.87;52.46191
59987;BME280;46181;51.498;5.392;2023-09-12T11:24:02;101207;;;30.07;51.43555
59987;BME280;46181;51.498;5.392;2023-09-12T11:28:28;101204.4;;;30.12;50.5332
59987;BME280;46181;51.498;5.392;2023-09-12T11:32:56;101201.9;;;30.03;50.5
59987;BME280;46181;51.498;5.392;2023-09-12T11:37:31;101206.7;;;29.93;50.39453
59987;BME280;46181;51.498;5.392;2023-09-12T11:41:54;101202.7;;;29.85;50.25586
59987;BME280;46181;51.498;5.392;2023-09-12T11:46:26;101202.8;;;29.7;50.36816
59987;BME280;46181;51.498;5.392;2023-09-12T11:50:58;101200.8;;;29.67;50.51953
59987;BME280;46181;51.498;5.392;2023-09-12T11:55:30;101207.4;;;29.76;50.24707
59987;BME280;46181;51.498;5.392;2023-09-12T11:59:55;101198.9;;;29.86;50.02051
59987;BME280;46181;51.498;5.392;2023-09-12T12:04:24;101186.8;;;29.91;48.97754
59987;BME280;46181;51.498;5.392;2023-09-12T12:08:54;101192.7;;;30;49.57813
59987;BME280;46181;51.498;5.392;2023-09-12T12:13:25;101196.2;;;30.11;48.89258
59987;BME280;46181;51.498;5.392;2023-09-12T12:17:58;101185.6;;;30.15;48.4375
59987;BME280;46181;51.498;5.392;2023-09-12T12:22:24;101190.2;;;30.27;48.00098
59987;BME280;46181;51.498;5.392;2023-09-12T12:26:54;101194.5;;;30.4;48.24023
59987;BME280;46181;51.498;5.392;2023-09-12T12:31:25;101174.3;;;30.5;47.58789
59987;BME280;46181;51.498;5.392;2023-09-12T12:36:02;101170;;;30.56;47.13379
59987;BME280;46181;51.498;5.392;2023-09-12T12:40:25;101170;;;30.63;46.39551
59987;BME280;46181;51.498;5.392;2023-09-12T12:44:56;101167;;;30.67;46.81543
59987;BME280;46181;51.498;5.392;2023-09-12T12:49:28;101170.4;;;30.73;46.84473
59987;BME280;46181;51.498;5.392;2023-09-12T12:54:02;101168.1;;;30.76;46.89453
59987;BME280;46181;51.498;5.392;2023-09-12T12:58:24;101166;;;30.7;46.87695
59987;BME280;46181;51.498;5.392;2023-09-12T13:02:54;101158.5;;;30.69;47.01758
59987;BME280;46181;51.498;5.392;2023-09-12T13:07:24;101154;;;30.64;45.35742
59987;BME280;46181;51.498;5.392;2023-09-12T13:11:54;101154.5;;;30.51;46.1377
59987;BME280;46181;51.498;5.392;2023-09-12T13:16:25;101150.3;;;30.48;46.35742
59987;BME280;46181;51.498;5.392;2023-09-12T13:20:54;101150.7;;;30.5;46.37109
59987;BME280;46181;51.498;5.392;2023-09-12T13:25:24;101149.1;;;30.51;46.4082
59987;BME280;46181;51.498;5.392;2023-09-12T13:29:54;101141.8;;;30.53;46.77734
59987;BME280;46181;51.498;5.392;2023-09-12T13:34:24;101133.7;;;30.65;46.00879
59987;BME280;46181;51.498;5.392;2023-09-12T13:38:54;101127.2;;;30.81;44.90137
59987;BME280;46181;51.498;5.392;2023-09-12T13:43:24;101117.8;;;30.95;43.36523
59987;BME280;46181;51.498;5.392;2023-09-12T13:47:54;101114.8;;;30.93;43.80078
59987;BME280;46181;51.498;5.392;2023-09-12T13:52:25;101103.5;;;30.87;42.40918
59987;BME280;46181;51.498;5.392;2023-09-12T13:56:55;101102.2;;;30.71;42.56055
59987;BME280;46181;51.498;5.392;2023-09-12T14:01:26;101112.3;;;30.71;42.53711
59987;BME280;46181;51.498;5.392;2023-09-12T14:05:54;101110.4;;;30.75;42.65918
59987;BME280;46181;51.498;5.392;2023-09-12T14:10:24;101112.2;;;30.8;43.76465
59987;BME280;46181;51.498;5.392;2023-09-12T14:14:54;101111.4;;;30.9;43.93945
59987;BME280;46181;51.498;5.392;2023-09-12T14:19:25;101110.5;;;30.98;43.84082
59987;BME280;46181;51.498;5.392;2023-09-12T14:23:54;101104;;;31.02;43.31152
59987;BME280;46181;51.498;5.392;2023-09-12T14:28:24;101097.1;;;31.08;43.08105
59987;BME280;46181;51.498;5.392;2023-09-12T14:32:54;101093;;;31.03;43.71582
59987;BME280;46181;51.498;5.392;2023-09-12T14:37:24;101092.7;;;30.97;43.17676
59987;BME280;46181;51.498;5.392;2023-09-12T14:41:54;101079.1;;;30.95;42.16895
59987;BME280;46181;51.498;5.392;2023-09-12T14:46:24;101083.7;;;30.98;42.27832
59987;BME280;46181;51.498;5.392;2023-09-12T14:50:54;101082.7;;;31.07;42.8916
59987;BME280;46181;51.498;5.392;2023-09-12T14:55:24;101083.4;;;31.17;41.90332
59987;BME280;46181;51.498;5.392;2023-09-12T14:59:54;101087.2;;;31.15;41.5
59987;BME280;46181;51.498;5.392;2023-09-12T15:04:24;101078.9;;;31.22;41.58887
59987;BME280;46181;51.498;5.392;2023-09-12T15:08:55;101080.1;;;31.19;41.58594
59987;BME280;46181;51.498;5.392;2023-09-12T15:13:24;101080.5;;;31.18;41.50293
59987;BME280;46181;51.498;5.392;2023-09-12T15:17:54;101076;;;31.11;41.30664
59987;BME280;46181;51.498;5.392;2023-09-12T15:22:24;101077.3;;;31.08;41.1377
59987;BME280;46181;51.498;5.392;2023-09-12T15:26:54;101075.4;;;31.08;41.63574
59987;BME280;46181;51.498;5.392;2023-09-12T15:31:25;101063.8;;;31.06;41.15918
59987;BME280;46181;51.498;5.392;2023-09-12T15:35:55;101068.3;;;31.03;41.27637
59987;BME280;46181;51.498;5.392;2023-09-12T15:40:25;101063.9;;;31.01;41.81836
59987;BME280;46181;51.498;5.392;2023-09-12T15:44:55;101064;;;30.99;41.91211
59987;BME280;46181;51.498;5.392;2023-09-12T15:49:24;101071.3;;;30.92;42.07129
59987;BME280;46181;51.498;5.392;2023-09-12T15:53:55;101069.7;;;30.87;41.98438
59987;BME280;46181;51.498;5.392;2023-09-12T15:58:25;101067.3;;;30.79;41.95313
59987;BME280;46181;51.498;5.392;2023-09-12T16:02:55;101070.5;;;30.72;42.26563
59987;BME280;46181;51.498;5.392;2023-09-12T16:07:24;101064.7;;;30.69;42.35742
59987;BME280;46181;51.498;5.392;2023-09-12T16:11:55;101065.6;;;30.67;42.58105
59987;BME280;46181;51.498;5.392;2023-09-12T16:16:25;101066.6;;;30.65;42.99219
59987;BME280;46181;51.498;5.392;2023-09-12T16:20:55;101061.8;;;30.61;43.21387
59987;BME280;46181;51.498;5.392;2023-09-12T16:25:25;101065.9;;;30.6;43.7334
59987;BME280;46181;51.498;5.392;2023-09-12T16:29:55;101068.5;;;30.56;43.70703
59987;BME280;46181;51.498;5.392;2023-09-12T16:34:25;101066.2;;;30.51;43.78418
59987;BME280;46181;51.498;5.392;2023-09-12T16:38:54;101064.7;;;30.43;43.77637
59987;BME280;46181;51.498;5.392;2023-09-12T16:43:24;101069.9;;;30.38;44.38672
59987;BME280;46181;51.498;5.392;2023-09-12T16:47:55;101070.8;;;30.32;44.91113
59987;BME280;46181;51.498;5.392;2023-09-12T16:52:24;101075.7;;;30.25;44.89355
59987;BME280;46181;51.498;5.392;2023-09-12T16:56:55;101078.6;;;30.2;45.44336
59987;BME280;46181;51.498;5.392;2023-09-12T17:01:24;101084;;;30.12;45.56641
59987;BME280;46181;51.498;5.392;2023-09-12T17:05:55;101081.4;;;30.03;45.70996
59987;BME280;46181;51.498;5.392;2023-09-12T17:10:25;101078.7;;;29.95;45.76172
59987;BME280;46181;51.498;5.392;2023-09-12T17:14:54;101074.5;;;29.89;46.16797
59987;BME280;46181;51.498;5.392;2023-09-12T17:19:25;101075.3;;;29.83;46.2793
59987;BME280;46181;51.498;5.392;2023-09-12T17:23:55;101079.3;;;29.76;46.14258
59987;BME280;46181;51.498;5.392;2023-09-12T17:28:25;101078.9;;;29.68;46.19434
59987;BME280;46181;51.498;5.392;2023-09-12T17:32:55;101085.6;;;29.62;46.97754
59987;BME280;46181;51.498;5.392;2023-09-12T17:37:25;101081.5;;;29.55;46.74609
59987;BME280;46181;51.498;5.392;2023-09-12T17:41:55;101083.4;;;29.49;47.20117
59987;BME280;46181;51.498;5.392;2023-09-12T17:46:25;101087.7;;;29.43;47.44238
59987;BME280;46181;51.498;5.392;2023-09-12T17:50:58;101091.7;;;29.36;47.46973
59987;BME280;46181;51.498;5.392;2023-09-12T17:55:25;101101.8;;;29.3;47.79297
59987;BME280;46181;51.498;5.392;2023-09-12T17:59:54;101109.3;;;29.19;48.37012
59987;BME280;46181;51.498;5.392;2023-09-12T18:04:25;101112;;;28.86;49.99316
59987;BME280;46181;51.498;5.392;2023-09-12T18:08:55;101115.6;;;28.64;50.69922
59987;BME280;46181;51.498;5.392;2023-09-12T18:13:25;101123.1;;;28.48;51.64355
59987;BME280;46181;51.498;5.392;2023-09-12T18:17:55;101133.9;;;28.3;52.86816
59987;BME280;46181;51.498;5.392;2023-09-12T18:22:25;101127.2;;;28.13;53.59961
59987;BME280;46181;51.498;5.392;2023-09-12T18:26:55;101142.4;;;28.04;54.29102
59987;BME280;46181;51.498;5.392;2023-09-12T18:31:25;101142.4;;;27.95;55.04199
59987;BME280;46181;51.498;5.392;2023-09-12T18:35:55;101154.7;;;27.9;55.45898
59987;BME280;46181;51.498;5.392;2023-09-12T18:40:25;101157.2;;;27.81;55.92773
59987;BME280;46181;51.498;5.392;2023-09-12T18:44:54;101161.6;;;27.68;55.09277
59987;BME280;46181;51.498;5.392;2023-09-12T18:49:25;101164.8;;;27.5;54.98828
59987;BME280;46181;51.498;5.392;2023-09-12T18:53:55;101166.7;;;27.37;54.92578
59987;BME280;46181;51.498;5.392;2023-09-12T18:58:25;101165.5;;;27.27;55.01855
59987;BME280;46181;51.498;5.392;2023-09-12T19:02:55;101164;;;27.17;55.04102
59987;BME280;46181;51.498;5.392;2023-09-12T19:07:25;101167.7;;;27.1;55.20801
59987;BME280;46181;51.498;5.392;2023-09-12T19:11:55;101164.7;;;27.03;55.31641
59987;BME280;46181;51.498;5.392;2023-09-12T19:16:25;101161.7;;;26.96;55.43652
59987;BME280;46181;51.498;5.392;2023-09-12T19:20:55;101159.9;;;26.89;55.5459
59987;BME280;46181;51.498;5.392;2023-09-12T19:25:25;101160.4;;;26.82;55.67676
59987;BME280;46181;51.498;5.392;2023-09-12T19:30:02;101159.4;;;26.72;55.89844
59987;BME280;46181;51.498;5.392;2023-09-12T19:34:25;101150.6;;;26.66;56.00879
59987;BME280;46181;51.498;5.392;2023-09-12T19:38:55;101142.3;;;26.63;56.12012
59987;BME280;46181;51.498;5.392;2023-09-12T19:43:25;101137.6;;;26.59;56.2793
59987;BME280;46181;51.498;5.392;2023-09-12T19:47:55;101134.5;;;26.56;56.36914
59987;BME280;46181;51.498;5.392;2023-09-12T19:52:25;101137.9;;;26.56;56.47559
59987;BME280;46181;51.498;5.392;2023-09-12T19:56:55;101132;;;26.53;56.55273
59987;BME280;46181;51.498;5.392;2023-09-12T20:01:25;101125.9;;;26.49;56.62891
59987;BME280;46181;51.498;5.392;2023-09-12T20:05:57;101127.1;;;26.45;56.83398
59987;BME280;46181;51.498;5.392;2023-09-12T20:10:25;101133.8;;;26.47;56.88281
59987;BME280;46181;51.498;5.392;2023-09-12T20:14:55;101144.8;;;26.48;56.95605
59987;BME280;46181;51.498;5.392;2023-09-12T20:19:25;101149.9;;;26.47;57
59987;BME280;46181;51.498;5.392;2023-09-12T20:23:55;101148.5;;;26.43;57.07715
59987;BME280;46181;51.498;5.392;2023-09-12T20:28:25;101147.3;;;26.37;57.08008
59987;BME280;46181;51.498;5.392;2023-09-12T20:33:02;101151.5;;;26.27;57.00977
59987;BME280;46181;51.498;5.392;2023-09-12T20:37:25;101149.3;;;26.09;57.0459
59987;BME280;46181;51.498;5.392;2023-09-12T20:41:55;101150.9;;;25.93;57.27051
59987;BME280;46181;51.498;5.392;2023-09-12T20:46:25;101152.6;;;25.78;57.60156
59987;BME280;46181;51.498;5.392;2023-09-12T20:50:55;101160.5;;;25.68;57.83203
59987;BME280;46181;51.498;5.392;2023-09-12T20:55:25;101168.3;;;25.59;58.00684
59987;BME280;46181;51.498;5.392;2023-09-12T20:59:55;101162.2;;;25.51;58.19531
59987;BME280;46181;51.498;5.392;2023-09-12T21:04:25;101169.9;;;25.47;58.2959
59987;BME280;46181;51.498;5.392;2023-09-12T21:08:55;101177.6;;;25.44;58.42969
59987;BME280;46181;51.498;5.392;2023-09-12T21:13:25;101184;;;25.44;58.5127
59987;BME280;46181;51.498;5.392;2023-09-12T21:17:55;101185.6;;;25.47;58.54004
59987;BME280;46181;51.498;5.392;2023-09-12T21:22:25;101188.1;;;25.47;58.54004
59987;BME280;46181;51.498;5.392;2023-09-12T21:26:55;101191.2;;;25.48;58.59961
59987;BME280;46181;51.498;5.392;2023-09-12T21:31:25;101187.7;;;25.42;58.66113
59987;BME280;46181;51.498;5.392;2023-09-12T21:35:55;101186.5;;;25.46;58.78223
59987;BME280;46181;51.498;5.392;2023-09-12T21:40:25;101185.7;;;25.49;58.80957
59987;BME280;46181;51.498;5.392;2023-09-12T21:44:55;101176.5;;;25.53;58.81543
59987;BME280;46181;51.498;5.392;2023-09-12T21:49:25;101178.5;;;25.54;58.85156
59987;BME280;46181;51.498;5.392;2023-09-12T21:53:55;101184.5;;;25.54;58.83984
59987;BME280;46181;51.498;5.392;2023-09-12T21:58:25;101183.5;;;25.56;58.90137
59987;BME280;46181;51.498;5.392;2023-09-12T22:02:55;101183;;;25.57;58.90137
59987;BME280;46181;51.498;5.392;2023-09-12T22:07:25;101185.9;;;25.59;58.85742
59987;BME280;46181;51.498;5.392;2023-09-12T22:11:55;101179.6;;;25.56;58.91211
59987;BME280;46181;51.498;5.392;2023-09-12T22:16:25;101180.3;;;25.56;58.95898
59987;BME280;46181;51.498;5.392;2023-09-12T22:20:55;101179.5;;;25.51;58.94141
59987;BME280;46181;51.498;5.392;2023-09-12T22:25:25;101177.4;;;25.5;59.02148
59987;BME280;46181;51.498;5.392;2023-09-12T22:29:55;101175.4;;;25.51;58.95313
59987;BME280;46181;51.498;5.392;2023-09-12T22:34:25;101177.8;;;25.51;58.92969
59987;BME280;46181;51.498;5.392;2023-09-12T22:38:55;101172.7;;;25.49;58.93848
59987;BME280;46181;51.498;5.392;2023-09-12T22:43:25;101179;;;25.49;58.96191
59987;BME280;46181;51.498;5.392;2023-09-12T22:47:55;101179.4;;;25.48;59.0293
59987;BME280;46181;51.498;5.392;2023-09-12T22:52:25;101185.7;;;25.45;59.00293
59987;BME280;46181;51.498;5.392;2023-09-12T22:56:55;101191.1;;;25.45;59.01465
59987;BME280;46181;51.498;5.392;2023-09-12T23:01:25;101188.3;;;25.41;59.05566
59987;BME280;46181;51.498;5.392;2023-09-12T23:05:55;101194.8;;;25.38;59.07617